sensor_id;sensor_type;location;lat;lon;timestamp;pressure;altitude;pressure_sealevel;temperature;humidity
41862;BME280;27537;57.134;-2.136;2023-04-30T00:02:22;101502.09;;;7.82;100.00
41862;BME280;27537;57.134;-2.136;2023-04-30T00:04:49;101528.88;;;7.93;100.00
41862;BME280;27537;57.134;-2.136;2023-04-30T00:07:16;101532.16;;;8.07;100.00
41862;BME280;27537;57.134;-2.136;2023-04-30T00:09:43;101523.66;;;7.93;100.00
41862;BME280;27537;57.134;-2.136;2023-04-30T00:12:10;101497.09;;;7.65;100.00
41862;BME280;27537;57.134;-2.136;2023-04-30T00:14:36;101478.09;;;7.58;100.00
41862;BME280;27537;57.134;-2.136;2023-04-30T00:17:03;101521.81;;;8.03;100.00
41862;BME280;27537;57.134;-2.136;2023-04-30T00:19:30;101431.47;;;7.36;100.00
41862;BME280;27537;57.134;-2.136;2023-04-30T00:21:56;101522.09;;;7.83;100.00
41862;BME280;27537;57.134;-2.136;2023-04-30T00:24:23;101452.19;;;7.46;100.00
41862;BME280;27537;57.134;-2.136;2023-04-30T00:26:50;101472.13;;;7.50;100.00
41862;BME280;27537;57.134;-2.136;2023-04-30T00:29:17;101427.28;;;7.26;100.00
41862;BME280;27537;57.134;-2.136;2023-04-30T00:31:44;101440.91;;;7.44;100.00
41862;BME280;27537;57.134;-2.136;2023-04-30T00:34:11;101443.31;;;7.59;100.00
41862;BME280;27537;57.134;-2.136;2023-04-30T00:36:37;101461.72;;;7.48;100.00
41862;BME280;27537;57.134;-2.136;2023-04-30T00:39:05;101511.72;;;7.76;100.00
41862;BME280;27537;57.134;-2.136;2023-04-30T00:41:34;101496.06;;;7.79;100.00
41862;BME280;27537;57.134;-2.136;2023-04-30T00:44:00;101487.19;;;7.91;100.00
41862;BME280;27537;57.134;-2.136;2023-04-30T00:46:28;101416.72;;;7.35;100.00
41862;BME280;27537;57.134;-2.136;2023-04-30T00:48:55;101456.31;;;7.64;100.00
41862;BME280;27537;57.134;-2.136;2023-04-30T00:51:22;101461.50;;;7.64;100.00
41862;BME280;27537;57.134;-2.136;2023-04-30T00:53:49;101463.06;;;7.77;100.00
41862;BME280;27537;57.134;-2.136;2023-04-30T00:56:16;101433.84;;;7.55;100.00
41862;BME280;27537;57.134;-2.136;2023-04-30T00:58:44;101429.41;;;7.60;100.00
41862;BME280;27537;57.134;-2.136;2023-04-30T01:01:11;101444.25;;;7.56;100.00
41862;BME280;27537;57.134;-2.136;2023-04-30T01:03:38;101457.97;;;7.68;100.00
41862;BME280;27537;57.134;-2.136;2023-04-30T01:06:05;101452.63;;;7.77;100.00
41862;BME280;27537;57.134;-2.136;2023-04-30T01:08:32;101469.81;;;7.92;100.00
41862;BME280;27537;57.134;-2.136;2023-04-30T01:11:15;101475.88;;;7.92;100.00
41862;BME280;27537;57.134;-2.136;2023-04-30T01:13:58;101407.84;;;7.49;100.00
41862;BME280;27537;57.134;-2.136;2023-04-30T01:16:34;101459.31;;;7.95;100.00
41862;BME280;27537;57.134;-2.136;2023-04-30T01:19:09;101466.13;;;8.04;100.00
41862;BME280;27537;57.134;-2.136;2023-04-30T01:21:42;101434.97;;;7.94;100.00
41862;BME280;27537;57.134;-2.136;2023-04-30T01:26:58;101455.75;;;8.02;100.00
41862;BME280;27537;57.134;-2.136;2023-04-30T01:29:33;101439.59;;;7.75;100.00
41862;BME280;27537;57.134;-2.136;2023-04-30T01:32:01;101416.88;;;7.85;100.00
41862;BME280;27537;57.134;-2.136;2023-04-30T01:34:29;101378.53;;;7.33;100.00
41862;BME280;27537;57.134;-2.136;2023-04-30T01:37:10;101454.97;;;7.95;100.00
41862;BME280;27537;57.134;-2.136;2023-04-30T01:39:56;101394.47;;;7.72;100.00
41862;BME280;27537;57.134;-2.136;2023-04-30T01:42:39;101449.78;;;7.94;100.00
41862;BME280;27537;57.134;-2.136;2023-04-30T01:45:35;101446.31;;;7.93;100.00
41862;BME280;27537;57.134;-2.136;2023-04-30T01:50:52;101423.75;;;7.91;100.00
41862;BME280;27537;57.134;-2.136;2023-04-30T01:53:40;101449.59;;;8.06;100.00
41862;BME280;27537;57.134;-2.136;2023-04-30T01:56:39;101438.19;;;8.12;100.00
41862;BME280;27537;57.134;-2.136;2023-04-30T01:59:10;101429.56;;;8.07;100.00
41862;BME280;27537;57.134;-2.136;2023-04-30T02:01:39;101395.84;;;7.96;100.00
41862;BME280;27537;57.134;-2.136;2023-04-30T02:04:06;101377.97;;;7.73;100.00
41862;BME280;27537;57.134;-2.136;2023-04-30T02:06:33;101389.78;;;7.95;100.00
41862;BME280;27537;57.134;-2.136;2023-04-30T02:09:00;101363.19;;;7.72;100.00
41862;BME280;27537;57.134;-2.136;2023-04-30T02:11:31;101368.31;;;7.78;100.00
41862;BME280;27537;57.134;-2.136;2023-04-30T02:13:58;101414.72;;;8.12;100.00
41862;BME280;27537;57.134;-2.136;2023-04-30T02:16:25;101359.75;;;7.71;100.00
41862;BME280;27537;57.134;-2.136;2023-04-30T02:18:51;101406.81;;;8.18;100.00
41862;BME280;27537;57.134;-2.136;2023-04-30T02:21:18;101404.41;;;8.04;100.00
41862;BME280;27537;57.134;-2.136;2023-04-30T02:23:45;101354.09;;;7.99;100.00
41862;BME280;27537;57.134;-2.136;2023-04-30T02:26:12;101374.13;;;7.95;100.00
41862;BME280;27537;57.134;-2.136;2023-04-30T02:28:39;101358.66;;;7.86;100.00
41862;BME280;27537;57.134;-2.136;2023-04-30T02:31:05;101332.72;;;7.75;100.00
41862;BME280;27537;57.134;-2.136;2023-04-30T02:33:32;101348.97;;;7.91;100.00
41862;BME280;27537;57.134;-2.136;2023-04-30T02:35:59;101337.63;;;7.95;100.00
41862;BME280;27537;57.134;-2.136;2023-04-30T02:38:26;101380.56;;;8.26;100.00
41862;BME280;27537;57.134;-2.136;2023-04-30T02:40:53;101327.50;;;7.75;100.00
41862;BME280;27537;57.134;-2.136;2023-04-30T02:43:19;101330.91;;;7.80;100.00
41862;BME280;27537;57.134;-2.136;2023-04-30T02:45:46;101318.06;;;7.68;100.00
41862;BME280;27537;57.134;-2.136;2023-04-30T02:48:14;101334.13;;;7.95;100.00
41862;BME280;27537;57.134;-2.136;2023-04-30T02:50:40;101313.63;;;7.75;100.00
41862;BME280;27537;57.134;-2.136;2023-04-30T02:53:07;101304.16;;;7.71;100.00
41862;BME280;27537;57.134;-2.136;2023-04-30T02:55:34;101339.41;;;7.93;100.00
41862;BME280;27537;57.134;-2.136;2023-04-30T02:58:01;101318.69;;;7.84;100.00
41862;BME280;27537;57.134;-2.136;2023-04-30T03:00:27;101329.03;;;7.90;100.00
41862;BME280;27537;57.134;-2.136;2023-04-30T03:02:54;101324.59;;;7.95;100.00
41862;BME280;27537;57.134;-2.136;2023-04-30T03:05:22;101379.91;;;8.14;100.00
41862;BME280;27537;57.134;-2.136;2023-04-30T03:07:49;101305.66;;;7.84;100.00
41862;BME280;27537;57.134;-2.136;2023-04-30T03:10:16;101327.78;;;8.11;100.00
41862;BME280;27537;57.134;-2.136;2023-04-30T03:12:44;101328.97;;;7.93;100.00
41862;BME280;27537;57.134;-2.136;2023-04-30T03:15:11;101287.69;;;7.67;100.00
41862;BME280;27537;57.134;-2.136;2023-04-30T03:17:38;101319.41;;;7.92;100.00
41862;BME280;27537;57.134;-2.136;2023-04-30T03:20:05;101300.84;;;7.59;100.00
41862;BME280;27537;57.134;-2.136;2023-04-30T03:22:32;101329.88;;;7.91;100.00
41862;BME280;27537;57.134;-2.136;2023-04-30T03:24:59;101314.72;;;8.13;100.00
41862;BME280;27537;57.134;-2.136;2023-04-30T03:27:26;101342.09;;;8.37;100.00
41862;BME280;27537;57.134;-2.136;2023-04-30T03:29:53;101265.38;;;8.02;100.00
41862;BME280;27537;57.134;-2.136;2023-04-30T03:32:20;101308.47;;;8.22;100.00
41862;BME280;27537;57.134;-2.136;2023-04-30T03:34:47;101311.78;;;8.30;100.00
41862;BME280;27537;57.134;-2.136;2023-04-30T03:37:13;101325.94;;;8.18;100.00
41862;BME280;27537;57.134;-2.136;2023-04-30T03:39:40;101256.00;;;7.90;100.00
41862;BME280;27537;57.134;-2.136;2023-04-30T03:42:07;101285.31;;;8.05;100.00
41862;BME280;27537;57.134;-2.136;2023-04-30T03:44:33;101271.72;;;7.86;100.00
41862;BME280;27537;57.134;-2.136;2023-04-30T03:47:00;101224.59;;;7.48;100.00
41862;BME280;27537;57.134;-2.136;2023-04-30T03:49:27;101302.81;;;7.96;100.00
41862;BME280;27537;57.134;-2.136;2023-04-30T03:51:54;101281.97;;;7.96;100.00
41862;BME280;27537;57.134;-2.136;2023-04-30T03:54:20;101265.50;;;7.93;100.00
41862;BME280;27537;57.134;-2.136;2023-04-30T03:56:47;101298.34;;;8.05;100.00
41862;BME280;27537;57.134;-2.136;2023-04-30T03:59:14;101246.59;;;7.83;100.00
41862;BME280;27537;57.134;-2.136;2023-04-30T04:01:40;101311.91;;;8.24;100.00
41862;BME280;27537;57.134;-2.136;2023-04-30T04:04:08;101287.69;;;8.17;100.00
41862;BME280;27537;57.134;-2.136;2023-04-30T04:06:35;101277.72;;;7.91;100.00
41862;BME280;27537;57.134;-2.136;2023-04-30T04:09:01;101241.53;;;7.74;100.00
41862;BME280;27537;57.134;-2.136;2023-04-30T04:11:29;101284.31;;;8.12;100.00
41862;BME280;27537;57.134;-2.136;2023-04-30T04:13:56;101260.31;;;7.91;100.00
41862;BME280;27537;57.134;-2.136;2023-04-30T04:16:23;101251.63;;;7.92;100.00
41862;BME280;27537;57.134;-2.136;2023-04-30T04:18:50;101266.19;;;8.04;100.00
41862;BME280;27537;57.134;-2.136;2023-04-30T04:21:17;101309.28;;;8.25;100.00
41862;BME280;27537;57.134;-2.136;2023-04-30T04:23:43;101239.56;;;7.87;100.00
41862;BME280;27537;57.134;-2.136;2023-04-30T04:26:10;101309.84;;;8.41;100.00
41862;BME280;27537;57.134;-2.136;2023-04-30T04:28:37;101266.88;;;8.14;100.00
41862;BME280;27537;57.134;-2.136;2023-04-30T04:31:04;101241.03;;;8.02;100.00
41862;BME280;27537;57.134;-2.136;2023-04-30T04:33:31;101261.84;;;8.05;100.00
41862;BME280;27537;57.134;-2.136;2023-04-30T04:35:58;101285.06;;;8.17;100.00
41862;BME280;27537;57.134;-2.136;2023-04-30T04:38:25;101287.03;;;8.06;100.00
41862;BME280;27537;57.134;-2.136;2023-04-30T04:40:52;101245.59;;;7.89;100.00
41862;BME280;27537;57.134;-2.136;2023-04-30T04:43:20;101303.28;;;8.20;100.00
41862;BME280;27537;57.134;-2.136;2023-04-30T04:45:47;101252.34;;;8.01;100.00
41862;BME280;27537;57.134;-2.136;2023-04-30T04:48:14;101278.81;;;8.26;100.00
41862;BME280;27537;57.134;-2.136;2023-04-30T04:50:41;101234.22;;;7.93;100.00
41862;BME280;27537;57.134;-2.136;2023-04-30T04:53:07;101261.81;;;8.06;100.00
41862;BME280;27537;57.134;-2.136;2023-04-30T04:55:34;101178.09;;;7.73;100.00
41862;BME280;27537;57.134;-2.136;2023-04-30T04:58:01;101229.19;;;7.84;100.00
41862;BME280;27537;57.134;-2.136;2023-04-30T05:00:28;101258.50;;;7.96;100.00
41862;BME280;27537;57.134;-2.136;2023-04-30T05:02:55;101231.84;;;7.80;100.00
41862;BME280;27537;57.134;-2.136;2023-04-30T05:05:22;101267.81;;;8.10;100.00
41862;BME280;27537;57.134;-2.136;2023-04-30T05:07:49;101205.16;;;7.68;100.00
41862;BME280;27537;57.134;-2.136;2023-04-30T05:10:18;101207.47;;;7.85;100.00
41862;BME280;27537;57.134;-2.136;2023-04-30T05:12:44;101214.25;;;7.93;100.00
41862;BME280;27537;57.134;-2.136;2023-04-30T05:15:11;101251.13;;;8.20;100.00
41862;BME280;27537;57.134;-2.136;2023-04-30T05:17:38;101252.00;;;8.17;100.00
41862;BME280;27537;57.134;-2.136;2023-04-30T05:20:05;101228.16;;;7.92;100.00
41862;BME280;27537;57.134;-2.136;2023-04-30T05:22:33;101238.91;;;8.22;100.00
41862;BME280;27537;57.134;-2.136;2023-04-30T05:24:59;101218.34;;;8.05;100.00
41862;BME280;27537;57.134;-2.136;2023-04-30T05:27:26;101222.41;;;8.20;100.00
41862;BME280;27537;57.134;-2.136;2023-04-30T05:29:53;101251.53;;;8.44;100.00
41862;BME280;27537;57.134;-2.136;2023-04-30T05:32:35;101228.66;;;8.13;100.00
41862;BME280;27537;57.134;-2.136;2023-04-30T05:35:03;101200.47;;;7.87;100.00
41862;BME280;27537;57.134;-2.136;2023-04-30T05:37:29;101195.84;;;7.99;100.00
41862;BME280;27537;57.134;-2.136;2023-04-30T05:39:56;101204.41;;;8.08;100.00
41862;BME280;27537;57.134;-2.136;2023-04-30T05:42:23;101201.94;;;8.00;100.00
41862;BME280;27537;57.134;-2.136;2023-04-30T05:44:50;101220.03;;;8.09;100.00
41862;BME280;27537;57.134;-2.136;2023-04-30T05:47:17;101248.28;;;8.31;100.00
41862;BME280;27537;57.134;-2.136;2023-04-30T05:49:43;101206.69;;;8.23;100.00
41862;BME280;27537;57.134;-2.136;2023-04-30T05:52:10;101162.75;;;8.03;100.00
41862;BME280;27537;57.134;-2.136;2023-04-30T05:54:37;101181.91;;;8.02;100.00
41862;BME280;27537;57.134;-2.136;2023-04-30T05:57:04;101194.56;;;8.21;100.00
41862;BME280;27537;57.134;-2.136;2023-04-30T05:59:31;101217.19;;;8.22;100.00
41862;BME280;27537;57.134;-2.136;2023-04-30T06:01:57;101198.75;;;8.29;100.00
41862;BME280;27537;57.134;-2.136;2023-04-30T06:04:24;101167.91;;;8.06;100.00
41862;BME280;27537;57.134;-2.136;2023-04-30T06:06:51;101186.06;;;8.11;100.00
41862;BME280;27537;57.134;-2.136;2023-04-30T06:09:18;101239.19;;;8.52;100.00
41862;BME280;27537;57.134;-2.136;2023-04-30T06:11:45;101215.97;;;8.38;100.00
41862;BME280;27537;57.134;-2.136;2023-04-30T06:14:16;101192.00;;;8.19;100.00
41862;BME280;27537;57.134;-2.136;2023-04-30T06:16:43;101182.13;;;8.33;100.00
41862;BME280;27537;57.134;-2.136;2023-04-30T06:19:11;101186.44;;;8.36;100.00
41862;BME280;27537;57.134;-2.136;2023-04-30T06:21:38;101228.06;;;8.44;100.00
41862;BME280;27537;57.134;-2.136;2023-04-30T06:24:05;101165.97;;;8.16;100.00
41862;BME280;27537;57.134;-2.136;2023-04-30T06:26:32;101196.31;;;8.22;100.00
41862;BME280;27537;57.134;-2.136;2023-04-30T06:28:59;101160.09;;;8.06;100.00
41862;BME280;27537;57.134;-2.136;2023-04-30T06:31:25;101194.88;;;8.05;100.00
41862;BME280;27537;57.134;-2.136;2023-04-30T06:33:52;101215.13;;;8.38;100.00
41862;BME280;27537;57.134;-2.136;2023-04-30T06:36:19;101142.03;;;7.97;100.00
41862;BME280;27537;57.134;-2.136;2023-04-30T06:38:46;101229.84;;;8.39;100.00
41862;BME280;27537;57.134;-2.136;2023-04-30T06:41:13;101186.59;;;8.28;100.00
41862;BME280;27537;57.134;-2.136;2023-04-30T06:43:40;101183.00;;;8.34;100.00
41862;BME280;27537;57.134;-2.136;2023-04-30T06:46:06;101182.38;;;8.21;100.00
41862;BME280;27537;57.134;-2.136;2023-04-30T06:48:33;101199.66;;;8.27;100.00
41862;BME280;27537;57.134;-2.136;2023-04-30T06:51:00;101193.28;;;8.42;100.00
41862;BME280;27537;57.134;-2.136;2023-04-30T06:53:26;101191.53;;;8.44;100.00
41862;BME280;27537;57.134;-2.136;2023-04-30T06:55:53;101195.44;;;8.20;100.00
41862;BME280;27537;57.134;-2.136;2023-04-30T06:58:21;101168.75;;;8.08;100.00
41862;BME280;27537;57.134;-2.136;2023-04-30T07:00:47;101235.34;;;8.70;100.00
41862;BME280;27537;57.134;-2.136;2023-04-30T07:03:14;101135.44;;;8.21;100.00
41862;BME280;27537;57.134;-2.136;2023-04-30T07:05:41;101196.66;;;8.48;100.00
41862;BME280;27537;57.134;-2.136;2023-04-30T07:08:08;101140.88;;;8.10;100.00
41862;BME280;27537;57.134;-2.136;2023-04-30T07:10:34;101157.06;;;8.26;100.00
41862;BME280;27537;57.134;-2.136;2023-04-30T07:13:01;101178.50;;;8.42;100.00
41862;BME280;27537;57.134;-2.136;2023-04-30T07:15:28;101178.94;;;8.63;100.00
41862;BME280;27537;57.134;-2.136;2023-04-30T07:17:55;101183.84;;;8.36;100.00
41862;BME280;27537;57.134;-2.136;2023-04-30T07:20:21;101208.53;;;8.62;100.00
41862;BME280;27537;57.134;-2.136;2023-04-30T07:22:48;101234.16;;;8.83;100.00
41862;BME280;27537;57.134;-2.136;2023-04-30T07:25:15;101217.09;;;8.68;100.00
41862;BME280;27537;57.134;-2.136;2023-04-30T07:27:42;101173.44;;;8.33;100.00
41862;BME280;27537;57.134;-2.136;2023-04-30T07:30:09;101138.03;;;8.21;100.00
41862;BME280;27537;57.134;-2.136;2023-04-30T07:32:36;101176.84;;;8.36;100.00
41862;BME280;27537;57.134;-2.136;2023-04-30T07:35:03;101178.41;;;8.47;100.00
41862;BME280;27537;57.134;-2.136;2023-04-30T07:37:31;101161.03;;;8.46;100.00
41862;BME280;27537;57.134;-2.136;2023-04-30T07:40:01;101169.56;;;8.54;100.00
41862;BME280;27537;57.134;-2.136;2023-04-30T07:42:28;101169.41;;;8.60;100.00
41862;BME280;27537;57.134;-2.136;2023-04-30T07:44:55;101132.25;;;8.49;100.00
41862;BME280;27537;57.134;-2.136;2023-04-30T07:47:22;101194.50;;;9.05;100.00
41862;BME280;27537;57.134;-2.136;2023-04-30T07:49:49;101161.03;;;8.83;100.00
41862;BME280;27537;57.134;-2.136;2023-04-30T07:52:15;101182.66;;;8.90;100.00
41862;BME280;27537;57.134;-2.136;2023-04-30T07:54:43;101201.00;;;8.87;100.00
41862;BME280;27537;57.134;-2.136;2023-04-30T07:57:09;101118.91;;;8.22;100.00
41862;BME280;27537;57.134;-2.136;2023-04-30T07:59:36;101182.19;;;8.72;100.00
41862;BME280;27537;57.134;-2.136;2023-04-30T08:02:03;101142.69;;;8.49;100.00
41862;BME280;27537;57.134;-2.136;2023-04-30T08:04:30;101114.28;;;8.33;100.00
41862;BME280;27537;57.134;-2.136;2023-04-30T08:06:56;101111.88;;;8.26;100.00
41862;BME280;27537;57.134;-2.136;2023-04-30T08:09:23;101128.84;;;8.45;100.00
41862;BME280;27537;57.134;-2.136;2023-04-30T08:11:50;101097.69;;;8.38;100.00
41862;BME280;27537;57.134;-2.136;2023-04-30T08:14:19;101151.00;;;8.66;100.00
41862;BME280;27537;57.134;-2.136;2023-04-30T08:16:46;101116.94;;;8.32;100.00
41862;BME280;27537;57.134;-2.136;2023-04-30T08:19:13;101109.88;;;8.37;100.00
41862;BME280;27537;57.134;-2.136;2023-04-30T08:21:40;101127.94;;;8.46;100.00
41862;BME280;27537;57.134;-2.136;2023-04-30T08:24:07;101136.44;;;8.56;100.00
41862;BME280;27537;57.134;-2.136;2023-04-30T08:26:34;101164.38;;;8.90;100.00
41862;BME280;27537;57.134;-2.136;2023-04-30T08:29:00;101128.00;;;8.45;100.00
41862;BME280;27537;57.134;-2.136;2023-04-30T08:31:27;101164.72;;;8.74;100.00
41862;BME280;27537;57.134;-2.136;2023-04-30T08:33:54;101163.81;;;8.77;100.00
41862;BME280;27537;57.134;-2.136;2023-04-30T08:36:24;101128.38;;;8.67;100.00
41862;BME280;27537;57.134;-2.136;2023-04-30T08:38:51;101123.28;;;8.61;100.00
41862;BME280;27537;57.134;-2.136;2023-04-30T08:41:19;101095.66;;;8.52;100.00
41862;BME280;27537;57.134;-2.136;2023-04-30T08:43:51;101157.81;;;8.73;100.00
41862;BME280;27537;57.134;-2.136;2023-04-30T08:46:19;101112.13;;;8.54;100.00
41862;BME280;27537;57.134;-2.136;2023-04-30T08:48:47;101136.75;;;8.80;100.00
41862;BME280;27537;57.134;-2.136;2023-04-30T08:51:14;101116.16;;;8.67;100.00
41862;BME280;27537;57.134;-2.136;2023-04-30T08:53:41;101166.25;;;8.83;100.00
41862;BME280;27537;57.134;-2.136;2023-04-30T08:56:10;101163.56;;;8.88;100.00
41862;BME280;27537;57.134;-2.136;2023-04-30T08:58:37;101146.84;;;8.95;100.00
41862;BME280;27537;57.134;-2.136;2023-04-30T09:01:06;101112.75;;;9.01;100.00
41862;BME280;27537;57.134;-2.136;2023-04-30T09:03:35;101138.22;;;8.91;100.00
41862;BME280;27537;57.134;-2.136;2023-04-30T09:06:02;101097.09;;;8.64;100.00
41862;BME280;27537;57.134;-2.136;2023-04-30T09:08:44;101070.09;;;8.66;100.00
41862;BME280;27537;57.134;-2.136;2023-04-30T09:13:54;101083.06;;;9.04;100.00
41862;BME280;27537;57.134;-2.136;2023-04-30T09:16:24;101150.16;;;9.36;100.00
41862;BME280;27537;57.134;-2.136;2023-04-30T09:18:51;101119.63;;;9.04;100.00
41862;BME280;27537;57.134;-2.136;2023-04-30T09:21:38;101145.16;;;9.28;100.00
41862;BME280;27537;57.134;-2.136;2023-04-30T09:24:05;101098.47;;;9.15;100.00
41862;BME280;27537;57.134;-2.136;2023-04-30T09:26:34;101098.22;;;9.24;100.00
41862;BME280;27537;57.134;-2.136;2023-04-30T09:29:02;101115.06;;;9.46;100.00
41862;BME280;27537;57.134;-2.136;2023-04-30T09:31:34;101120.22;;;9.49;100.00
41862;BME280;27537;57.134;-2.136;2023-04-30T09:34:02;101096.94;;;9.40;100.00
41862;BME280;27537;57.134;-2.136;2023-04-30T09:36:29;101083.63;;;9.15;100.00
41862;BME280;27537;57.134;-2.136;2023-04-30T09:39:11;101101.13;;;9.46;100.00
41862;BME280;27537;57.134;-2.136;2023-04-30T09:41:41;101104.59;;;9.46;100.00
41862;BME280;27537;57.134;-2.136;2023-04-30T09:44:28;101069.59;;;9.21;100.00
41862;BME280;27537;57.134;-2.136;2023-04-30T09:46:56;101093.78;;;9.27;100.00
41862;BME280;27537;57.134;-2.136;2023-04-30T09:49:24;101041.03;;;9.13;100.00
41862;BME280;27537;57.134;-2.136;2023-04-30T09:51:55;101111.88;;;9.66;100.00
41862;BME280;27537;57.134;-2.136;2023-04-30T09:54:25;101115.72;;;9.55;100.00
41862;BME280;27537;57.134;-2.136;2023-04-30T09:56:59;101101.72;;;9.24;100.00
41862;BME280;27537;57.134;-2.136;2023-04-30T09:59:29;101072.00;;;9.27;100.00
41862;BME280;27537;57.134;-2.136;2023-04-30T10:01:58;101074.34;;;9.38;100.00
41862;BME280;27537;57.134;-2.136;2023-04-30T10:04:29;101119.69;;;9.68;100.00
41862;BME280;27537;57.134;-2.136;2023-04-30T10:06:59;101071.34;;;9.52;100.00
41862;BME280;27537;57.134;-2.136;2023-04-30T10:09:30;101109.31;;;9.65;100.00
41862;BME280;27537;57.134;-2.136;2023-04-30T10:12:02;101063.84;;;9.39;100.00
41862;BME280;27537;57.134;-2.136;2023-04-30T10:14:33;101057.47;;;9.17;100.00
41862;BME280;27537;57.134;-2.136;2023-04-30T10:17:12;101017.88;;;8.99;100.00
41862;BME280;27537;57.134;-2.136;2023-04-30T10:19:44;101100.50;;;9.36;100.00
41862;BME280;27537;57.134;-2.136;2023-04-30T10:22:13;101086.91;;;9.23;100.00
41862;BME280;27537;57.134;-2.136;2023-04-30T10:24:41;101099.66;;;9.36;100.00
41862;BME280;27537;57.134;-2.136;2023-04-30T10:27:10;101052.69;;;9.32;100.00
41862;BME280;27537;57.134;-2.136;2023-04-30T10:29:37;101106.53;;;9.71;100.00
41862;BME280;27537;57.134;-2.136;2023-04-30T10:32:05;101057.00;;;9.35;100.00
41862;BME280;27537;57.134;-2.136;2023-04-30T10:34:47;101105.53;;;9.75;100.00
41862;BME280;27537;57.134;-2.136;2023-04-30T10:39:52;101078.31;;;9.53;100.00
41862;BME280;27537;57.134;-2.136;2023-04-30T10:42:23;101046.53;;;9.66;100.00
41862;BME280;27537;57.134;-2.136;2023-04-30T10:44:50;101052.19;;;9.81;100.00
41862;BME280;27537;57.134;-2.136;2023-04-30T10:47:17;101087.44;;;9.99;100.00
41862;BME280;27537;57.134;-2.136;2023-04-30T10:49:50;101082.75;;;10.10;100.00
41862;BME280;27537;57.134;-2.136;2023-04-30T10:52:27;101016.75;;;10.00;100.00
41862;BME280;27537;57.134;-2.136;2023-04-30T10:54:55;101056.88;;;10.01;100.00
41862;BME280;27537;57.134;-2.136;2023-04-30T10:57:22;101046.16;;;10.08;100.00
41862;BME280;27537;57.134;-2.136;2023-04-30T11:02:41;101012.53;;;9.96;100.00
41862;BME280;27537;57.134;-2.136;2023-04-30T11:08:05;101002.66;;;10.34;100.00
41862;BME280;27537;57.134;-2.136;2023-04-30T11:10:33;101064.41;;;10.40;100.00
41862;BME280;27537;57.134;-2.136;2023-04-30T11:13:04;101034.31;;;10.53;100.00
41862;BME280;27537;57.134;-2.136;2023-04-30T11:15:44;100999.06;;;10.37;100.00
41862;BME280;27537;57.134;-2.136;2023-04-30T11:18:12;100993.53;;;10.46;100.00
41862;BME280;27537;57.134;-2.136;2023-04-30T11:20:40;101017.94;;;10.73;100.00
41862;BME280;27537;57.134;-2.136;2023-04-30T11:23:14;101048.09;;;10.85;100.00
41862;BME280;27537;57.134;-2.136;2023-04-30T11:26:06;100969.88;;;10.21;100.00
41862;BME280;27537;57.134;-2.136;2023-04-30T11:28:33;100990.72;;;10.52;100.00
41862;BME280;27537;57.134;-2.136;2023-04-30T11:31:03;100999.84;;;10.66;100.00
41862;BME280;27537;57.134;-2.136;2023-04-30T11:33:32;100968.47;;;10.39;100.00
41862;BME280;27537;57.134;-2.136;2023-04-30T11:36:00;101011.50;;;10.57;100.00
41862;BME280;27537;57.134;-2.136;2023-04-30T11:38:38;100958.78;;;10.41;100.00
41862;BME280;27537;57.134;-2.136;2023-04-30T11:41:05;100954.59;;;10.62;100.00
41862;BME280;27537;57.134;-2.136;2023-04-30T11:43:33;100989.47;;;10.89;100.00
41862;BME280;27537;57.134;-2.136;2023-04-30T11:48:35;100998.81;;;10.96;100.00
41862;BME280;27537;57.134;-2.136;2023-04-30T11:51:16;100918.78;;;10.88;100.00
41862;BME280;27537;57.134;-2.136;2023-04-30T11:53:45;100990.78;;;11.26;100.00
41862;BME280;27537;57.134;-2.136;2023-04-30T11:56:13;100916.56;;;11.00;100.00
41862;BME280;27537;57.134;-2.136;2023-04-30T11:58:39;100930.63;;;11.45;100.00
41862;BME280;27537;57.134;-2.136;2023-04-30T12:01:07;100941.41;;;11.61;100.00
41862;BME280;27537;57.134;-2.136;2023-04-30T12:03:44;100974.59;;;11.62;100.00
41862;BME280;27537;57.134;-2.136;2023-04-30T12:06:24;100970.94;;;11.66;100.00
41862;BME280;27537;57.134;-2.136;2023-04-30T12:08:53;100982.94;;;11.72;100.00
41862;BME280;27537;57.134;-2.136;2023-04-30T12:11:21;100918.72;;;11.36;100.00
41862;BME280;27537;57.134;-2.136;2023-04-30T12:13:52;100919.31;;;11.45;100.00
41862;BME280;27537;57.134;-2.136;2023-04-30T12:16:19;100899.53;;;11.36;100.00
41862;BME280;27537;57.134;-2.136;2023-04-30T12:18:46;100945.41;;;11.48;100.00
41862;BME280;27537;57.134;-2.136;2023-04-30T12:21:16;100929.22;;;11.36;100.00
41862;BME280;27537;57.134;-2.136;2023-04-30T12:23:44;100950.66;;;11.24;100.00
41862;BME280;27537;57.134;-2.136;2023-04-30T12:26:11;100919.44;;;10.94;100.00
41862;BME280;27537;57.134;-2.136;2023-04-30T12:28:38;100922.25;;;11.12;100.00
41862;BME280;27537;57.134;-2.136;2023-04-30T12:31:04;100934.25;;;11.43;100.00
41862;BME280;27537;57.134;-2.136;2023-04-30T12:33:31;100947.00;;;11.52;100.00
41862;BME280;27537;57.134;-2.136;2023-04-30T12:35:58;100926.81;;;11.54;100.00
41862;BME280;27537;57.134;-2.136;2023-04-30T12:38:26;100900.56;;;11.32;100.00
41862;BME280;27537;57.134;-2.136;2023-04-30T12:40:52;100907.09;;;11.44;100.00
41862;BME280;27537;57.134;-2.136;2023-04-30T12:43:19;100898.91;;;11.29;100.00
41862;BME280;27537;57.134;-2.136;2023-04-30T12:45:49;100952.94;;;11.79;100.00
41862;BME280;27537;57.134;-2.136;2023-04-30T12:48:26;100895.34;;;11.32;100.00
41862;BME280;27537;57.134;-2.136;2023-04-30T12:50:55;100927.38;;;11.84;100.00
41862;BME280;27537;57.134;-2.136;2023-04-30T12:53:24;100876.09;;;11.31;100.00
41862;BME280;27537;57.134;-2.136;2023-04-30T12:58:35;100926.22;;;11.69;100.00
41862;BME280;27537;57.134;-2.136;2023-04-30T13:01:05;100898.34;;;11.67;100.00
41862;BME280;27537;57.134;-2.136;2023-04-30T13:03:36;100919.09;;;12.17;100.00
41862;BME280;27537;57.134;-2.136;2023-04-30T13:06:03;100854.25;;;11.76;100.00
41862;BME280;27537;57.134;-2.136;2023-04-30T13:08:30;100916.81;;;12.30;100.00